sensor_id;sensor_type;location;lat;lon;timestamp;pressure;altitude;pressure_sealevel;temperature;humidity
41596;BME280;27283;52.504;13.358;2023-04-24T00:02:02;99925.16;;;11.97;84.45
41596;BME280;27283;52.504;13.358;2023-04-24T00:04:36;99920.78;;;11.96;84.75
41596;BME280;27283;52.504;13.358;2023-04-24T00:07:12;99925.16;;;11.97;84.67
41596;BME280;27283;52.504;13.358;2023-04-24T00:09:45;99910.19;;;11.95;84.61
41596;BME280;27283;52.504;13.358;2023-04-24T00:12:18;99909.72;;;11.91;84.96
41596;BME280;27283;52.504;13.358;2023-04-24T00:14:50;99908.25;;;11.88;85.50
41596;BME280;27283;52.504;13.358;2023-04-24T00:17:23;99908.66;;;11.85;85.97
41596;BME280;27283;52.504;13.358;2023-04-24T00:19:55;99901.97;;;11.81;86.37
41596;BME280;27283;52.504;13.358;2023-04-24T00:22:31;99897.03;;;11.85;86.19
41596;BME280;27283;52.504;13.358;2023-04-24T00:25:04;99890.81;;;11.84;86.23
41596;BME280;27283;52.504;13.358;2023-04-24T00:27:36;99889.34;;;11.82;86.63
41596;BME280;27283;52.504;13.358;2023-04-24T00:30:09;99889.34;;;11.82;86.37
41596;BME280;27283;52.504;13.358;2023-04-24T00:32:41;99882.91;;;11.76;87.16
41596;BME280;27283;52.504;13.358;2023-04-24T00:35:13;99880.19;;;11.76;87.06
41596;BME280;27283;52.504;13.358;2023-04-24T00:37:51;99880.59;;;11.73;87.73
41596;BME280;27283;52.504;13.358;2023-04-24T00:40:23;99879.75;;;11.73;87.52
41596;BME280;27283;52.504;13.358;2023-04-24T00:42:56;99863.94;;;11.63;88.10
41596;BME280;27283;52.504;13.358;2023-04-24T00:45:29;99861.34;;;11.55;88.37
41596;BME280;27283;52.504;13.358;2023-04-24T00:48:02;99858.47;;;11.56;88.55
41596;BME280;27283;52.504;13.358;2023-04-24T00:50:36;99856.63;;;11.57;88.66
41596;BME280;27283;52.504;13.358;2023-04-24T00:53:11;99855.97;;;11.55;89.02
41596;BME280;27283;52.504;13.358;2023-04-24T00:55:44;99850.16;;;11.51;89.29
41596;BME280;27283;52.504;13.358;2023-04-24T00:58:17;99850.16;;;11.51;89.43
41596;BME280;27283;52.504;13.358;2023-04-24T01:00:54;99846.19;;;11.47;89.57
41596;BME280;27283;52.504;13.358;2023-04-24T01:03:34;99841.84;;;11.46;89.67
41596;BME280;27283;52.504;13.358;2023-04-24T01:06:09;99852.84;;;11.51;89.79
41596;BME280;27283;52.504;13.358;2023-04-24T01:08:46;99866.91;;;11.46;89.94
41596;BME280;27283;52.504;13.358;2023-04-24T01:11:18;99862.31;;;11.47;90.04
41596;BME280;27283;52.504;13.358;2023-04-24T01:13:51;99867.53;;;11.48;89.83
41596;BME280;27283;52.504;13.358;2023-04-24T01:16:23;99864.81;;;11.48;90.00
41596;BME280;27283;52.504;13.358;2023-04-24T01:19:14;99860.69;;;11.46;90.65
41596;BME280;27283;52.504;13.358;2023-04-24T01:21:47;99862.31;;;11.47;90.81
41596;BME280;27283;52.504;13.358;2023-04-24T01:24:25;99858.88;;;11.53;90.77
41596;BME280;27283;52.504;13.358;2023-04-24T01:26:58;99856.16;;;11.53;90.75
41596;BME280;27283;52.504;13.358;2023-04-24T01:29:31;99857.84;;;11.54;91.12
41596;BME280;27283;52.504;13.358;2023-04-24T01:32:04;99856.44;;;11.58;91.01
41596;BME280;27283;52.504;13.358;2023-04-24T01:34:37;99856.25;;;11.60;90.86
41596;BME280;27283;52.504;13.358;2023-04-24T01:37:10;99850.47;;;11.63;91.18
41596;BME280;27283;52.504;13.358;2023-04-24T01:39:45;99846.91;;;11.62;91.08
41596;BME280;27283;52.504;13.358;2023-04-24T01:42:18;99848.41;;;11.65;91.34
41596;BME280;27283;52.504;13.358;2023-04-24T01:44:50;99843.00;;;11.65;91.15
41596;BME280;27283;52.504;13.358;2023-04-24T01:47:23;99849.88;;;11.67;91.29
41596;BME280;27283;52.504;13.358;2023-04-24T01:49:55;99832.88;;;11.67;91.66
41596;BME280;27283;52.504;13.358;2023-04-24T01:52:28;99824.78;;;11.67;91.90
41596;BME280;27283;52.504;13.358;2023-04-24T01:55:06;99826.47;;;11.68;91.70
41596;BME280;27283;52.504;13.358;2023-04-24T01:57:38;99828.13;;;11.69;92.10
41596;BME280;27283;52.504;13.358;2023-04-24T02:00:12;99820.88;;;11.69;91.63
41596;BME280;27283;52.504;13.358;2023-04-24T02:02:44;99824.63;;;11.68;91.63
41596;BME280;27283;52.504;13.358;2023-04-24T02:05:17;99818.16;;;11.63;92.09
41596;BME280;27283;52.504;13.358;2023-04-24T02:07:49;99831.44;;;11.64;92.78
41596;BME280;27283;52.504;13.358;2023-04-24T02:10:24;99820.66;;;11.64;92.58
41596;BME280;27283;52.504;13.358;2023-04-24T02:12:56;99811.50;;;11.59;92.79
41596;BME280;27283;52.504;13.358;2023-04-24T02:15:29;99813.16;;;11.60;93.36
41596;BME280;27283;52.504;13.358;2023-04-24T02:18:01;99810.72;;;11.65;92.78
41596;BME280;27283;52.504;13.358;2023-04-24T02:20:38;99814.00;;;11.60;93.17
41596;BME280;27283;52.504;13.358;2023-04-24T02:23:10;99798.72;;;11.67;93.23
41596;BME280;27283;52.504;13.358;2023-04-24T02:25:45;99801.81;;;11.64;93.13
41596;BME280;27283;52.504;13.358;2023-04-24T02:28:17;99808.63;;;11.67;92.95
41596;BME280;27283;52.504;13.358;2023-04-24T02:30:51;99804.50;;;11.64;93.63
41596;BME280;27283;52.504;13.358;2023-04-24T02:33:23;99803.66;;;11.64;93.44
41596;BME280;27283;52.504;13.358;2023-04-24T02:35:55;99810.28;;;11.61;93.42
41596;BME280;27283;52.504;13.358;2023-04-24T02:38:28;99809.69;;;11.66;93.66
41596;BME280;27283;52.504;13.358;2023-04-24T02:41:03;99802.81;;;11.63;93.43
41596;BME280;27283;52.504;13.358;2023-04-24T02:46:23;99810.28;;;11.61;93.83
41596;BME280;27283;52.504;13.358;2023-04-24T02:48:55;99803.41;;;11.59;93.87
41596;BME280;27283;52.504;13.358;2023-04-24T02:52:07;99798.91;;;11.66;93.75
41596;BME280;27283;52.504;13.358;2023-04-24T02:54:39;99803.09;;;11.68;93.80
41596;BME280;27283;52.504;13.358;2023-04-24T02:57:14;99800.75;;;11.65;93.77
41596;BME280;27283;52.504;13.358;2023-04-24T02:59:46;99798.06;;;11.65;93.85
41596;BME280;27283;52.504;13.358;2023-04-24T03:02:19;99798.53;;;11.69;93.97
41596;BME280;27283;52.504;13.358;2023-04-24T03:04:51;99791.66;;;11.66;93.78
41596;BME280;27283;52.504;13.358;2023-04-24T03:07:24;99789.41;;;11.70;93.57
41596;BME280;27283;52.504;13.358;2023-04-24T03:09:56;99795.81;;;11.69;93.76
41596;BME280;27283;52.504;13.358;2023-04-24T03:12:31;99804.94;;;11.68;93.70
41596;BME280;27283;52.504;13.358;2023-04-24T03:15:03;99806.22;;;11.72;94.08
41596;BME280;27283;52.504;13.358;2023-04-24T03:17:38;99809.97;;;11.78;93.15
41596;BME280;27283;52.504;13.358;2023-04-24T03:20:10;99811.00;;;11.77;93.53
41596;BME280;27283;52.504;13.358;2023-04-24T03:22:46;99814.50;;;11.77;93.21
41596;BME280;27283;52.504;13.358;2023-04-24T03:25:18;99815.59;;;11.83;93.20
41596;BME280;27283;52.504;13.358;2023-04-24T03:27:53;99816.88;;;11.87;92.79
41596;BME280;27283;52.504;13.358;2023-04-24T03:30:25;99810.84;;;11.85;92.82
41596;BME280;27283;52.504;13.358;2023-04-24T03:32:58;99813.97;;;11.88;92.79
41596;BME280;27283;52.504;13.358;2023-04-24T03:35:30;99805.91;;;11.88;92.47
41596;BME280;27283;52.504;13.358;2023-04-24T03:38:03;99804.03;;;11.89;92.84
41596;BME280;27283;52.504;13.358;2023-04-24T03:40:36;99804.94;;;11.96;92.24
41596;BME280;27283;52.504;13.358;2023-04-24T03:43:11;99805.97;;;11.95;91.93
41596;BME280;27283;52.504;13.358;2023-04-24T03:45:43;99823.09;;;11.87;92.76
41596;BME280;27283;52.504;13.358;2023-04-24T03:48:15;99827.25;;;11.90;92.72
41596;BME280;27283;52.504;13.358;2023-04-24T03:50:47;99827.31;;;11.97;92.48
41596;BME280;27283;52.504;13.358;2023-04-24T03:53:19;99815.53;;;11.98;92.35
41596;BME280;27283;52.504;13.358;2023-04-24T03:55:51;99809.50;;;11.96;92.40
41596;BME280;27283;52.504;13.358;2023-04-24T03:58:27;99799.16;;;11.99;92.25
41596;BME280;27283;52.504;13.358;2023-04-24T04:00:59;99810.34;;;12.03;91.58
41596;BME280;27283;52.504;13.358;2023-04-24T04:03:31;99814.09;;;12.02;91.59
41596;BME280;27283;52.504;13.358;2023-04-24T04:06:04;99812.22;;;12.02;91.63
41596;BME280;27283;52.504;13.358;2023-04-24T04:08:36;99803.16;;;12.10;91.12
41596;BME280;27283;52.504;13.358;2023-04-24T04:11:08;99800.25;;;12.12;90.71
41596;BME280;27283;52.504;13.358;2023-04-24T04:13:43;99805.44;;;12.13;90.75
41596;BME280;27283;52.504;13.358;2023-04-24T04:16:16;99804.81;;;12.11;90.78
41596;BME280;27283;52.504;13.358;2023-04-24T04:18:49;99803.41;;;12.15;90.40
41596;BME280;27283;52.504;13.358;2023-04-24T04:21:21;99788.66;;;12.18;90.23
41596;BME280;27283;52.504;13.358;2023-04-24T04:23:55;99798.03;;;12.22;90.20
41596;BME280;27283;52.504;13.358;2023-04-24T04:26:27;99794.06;;;12.18;90.52
41596;BME280;27283;52.504;13.358;2023-04-24T04:29:04;99798.22;;;12.20;90.10
41596;BME280;27283;52.504;13.358;2023-04-24T04:31:36;99790.34;;;12.19;90.38
41596;BME280;27283;52.504;13.358;2023-04-24T04:34:09;99798.78;;;12.09;91.24
41596;BME280;27283;52.504;13.358;2023-04-24T04:36:41;99801.53;;;12.16;90.57
41596;BME280;27283;52.504;13.358;2023-04-24T04:39:15;99801.72;;;12.14;91.09
41596;BME280;27283;52.504;13.358;2023-04-24T04:41:48;99803.19;;;12.17;90.42
41596;BME280;27283;52.504;13.358;2023-04-24T04:44:24;99802.75;;;12.13;90.79
41596;BME280;27283;52.504;13.358;2023-04-24T04:46:58;99805.22;;;12.08;90.93
41596;BME280;27283;52.504;13.358;2023-04-24T04:49:32;99819.94;;;12.12;90.62
41596;BME280;27283;52.504;13.358;2023-04-24T04:52:05;99824.16;;;12.21;90.34
41596;BME280;27283;52.504;13.358;2023-04-24T04:55:08;99816.72;;;12.30;89.46
41596;BME280;27283;52.504;13.358;2023-04-24T04:57:41;99814.66;;;12.32;89.19
41596;BME280;27283;52.504;13.358;2023-04-24T05:00:17;99821.50;;;12.35;89.11
41596;BME280;27283;52.504;13.358;2023-04-24T05:02:52;99821.94;;;12.38;89.04
41596;BME280;27283;52.504;13.358;2023-04-24T05:05:40;99825.06;;;12.42;88.83
41596;BME280;27283;52.504;13.358;2023-04-24T05:08:12;99832.34;;;12.41;89.52
41596;BME280;27283;52.504;13.358;2023-04-24T05:10:56;99829.44;;;12.50;89.30
41596;BME280;27283;52.504;13.358;2023-04-24T05:13:28;99833.41;;;12.54;90.06
41596;BME280;27283;52.504;13.358;2023-04-24T05:16:11;99837.44;;;12.71;86.86
41596;BME280;27283;52.504;13.358;2023-04-24T05:18:43;99835.38;;;12.80;86.11
41596;BME280;27283;52.504;13.358;2023-04-24T05:21:15;99833.72;;;12.86;86.38
41596;BME280;27283;52.504;13.358;2023-04-24T05:23:47;99831.25;;;12.84;87.05
41596;BME280;27283;52.504;13.358;2023-04-24T05:26:22;99836.00;;;12.82;87.03
41596;BME280;27283;52.504;13.358;2023-04-24T05:28:54;99845.19;;;12.94;85.19
41596;BME280;27283;52.504;13.358;2023-04-24T05:31:29;99838.13;;;13.00;85.55
41596;BME280;27283;52.504;13.358;2023-04-24T05:34:01;99843.78;;;13.12;85.59
41596;BME280;27283;52.504;13.358;2023-04-24T05:36:34;99844.81;;;13.24;84.36
41596;BME280;27283;52.504;13.358;2023-04-24T05:39:07;99842.13;;;13.31;83.26
41596;BME280;27283;52.504;13.358;2023-04-24T05:41:39;99845.25;;;13.21;84.10
41596;BME280;27283;52.504;13.358;2023-04-24T05:44:11;99848.16;;;13.33;81.95
41596;BME280;27283;52.504;13.358;2023-04-24T05:46:47;99843.63;;;13.34;82.93
41596;BME280;27283;52.504;13.358;2023-04-24T05:49:19;99842.78;;;13.33;82.82
41596;BME280;27283;52.504;13.358;2023-04-24T05:51:52;99844.03;;;13.37;82.08
41596;BME280;27283;52.504;13.358;2023-04-24T05:54:24;99840.28;;;13.45;81.21
41596;BME280;27283;52.504;13.358;2023-04-24T05:56:57;99849.84;;;13.34;81.62
41596;BME280;27283;52.504;13.358;2023-04-24T05:59:33;99859.84;;;13.47;80.59
41596;BME280;27283;52.504;13.358;2023-04-24T06:02:09;99851.31;;;13.63;80.68
41596;BME280;27283;52.504;13.358;2023-04-24T06:04:41;99849.63;;;13.96;80.14
41596;BME280;27283;52.504;13.358;2023-04-24T06:07:14;99859.69;;;14.54;78.19
41596;BME280;27283;52.504;13.358;2023-04-24T06:09:46;99861.69;;;15.17;75.01
41596;BME280;27283;52.504;13.358;2023-04-24T06:12:19;99862.47;;;16.07;72.54
41596;BME280;27283;52.504;13.358;2023-04-24T06:14:52;99870.47;;;16.76;67.05
41596;BME280;27283;52.504;13.358;2023-04-24T06:17:27;99858.66;;;17.00;65.77
41596;BME280;27283;52.504;13.358;2023-04-24T06:19:59;99872.53;;;17.11;63.22
41596;BME280;27283;52.504;13.358;2023-04-24T06:22:33;99878.69;;;16.88;64.03
41596;BME280;27283;52.504;13.358;2023-04-24T06:25:06;99871.56;;;16.68;65.83
41596;BME280;27283;52.504;13.358;2023-04-24T06:27:38;99870.13;;;16.84;65.25
41596;BME280;27283;52.504;13.358;2023-04-24T06:30:11;99869.22;;;17.51;61.92
41596;BME280;27283;52.504;13.358;2023-04-24T06:32:46;99866.78;;;18.09;60.13
41596;BME280;27283;52.504;13.358;2023-04-24T06:35:18;99870.34;;;18.85;57.13
41596;BME280;27283;52.504;13.358;2023-04-24T06:37:51;99870.22;;;18.16;58.23
41596;BME280;27283;52.504;13.358;2023-04-24T06:40:24;99875.22;;;18.71;57.88
41596;BME280;27283;52.504;13.358;2023-04-24T06:42:57;99871.84;;;19.51;54.70
41596;BME280;27283;52.504;13.358;2023-04-24T06:45:31;99874.59;;;19.85;55.21
41596;BME280;27283;52.504;13.358;2023-04-24T06:48:06;99875.16;;;19.70;53.32
41596;BME280;27283;52.504;13.358;2023-04-24T06:50:38;99874.53;;;19.34;54.91
41596;BME280;27283;52.504;13.358;2023-04-24T06:53:11;99859.09;;;19.22;55.79
41596;BME280;27283;52.504;13.358;2023-04-24T06:55:43;99862.00;;;19.66;53.27
41596;BME280;27283;52.504;13.358;2023-04-24T06:58:16;99870.31;;;18.97;53.10
41596;BME280;27283;52.504;13.358;2023-04-24T07:00:48;99862.41;;;18.84;53.30
41596;BME280;27283;52.504;13.358;2023-04-24T07:03:23;99864.19;;;17.66;54.80
41596;BME280;27283;52.504;13.358;2023-04-24T07:05:55;99850.63;;;17.24;56.28
41596;BME280;27283;52.504;13.358;2023-04-24T07:08:27;99848.78;;;17.18;58.18
41596;BME280;27283;52.504;13.358;2023-04-24T07:11:00;99855.28;;;17.59;57.86
41596;BME280;27283;52.504;13.358;2023-04-24T07:13:33;99863.38;;;18.77;55.38
41596;BME280;27283;52.504;13.358;2023-04-24T07:16:05;99861.31;;;19.25;51.99
41596;BME280;27283;52.504;13.358;2023-04-24T07:18:44;99858.66;;;19.13;52.27
41596;BME280;27283;52.504;13.358;2023-04-24T07:21:16;99867.06;;;19.12;52.29
41596;BME280;27283;52.504;13.358;2023-04-24T07:23:48;99856.50;;;18.75;53.40
41596;BME280;27283;52.504;13.358;2023-04-24T07:26:20;99866.03;;;18.60;53.97
41596;BME280;27283;52.504;13.358;2023-04-24T07:28:53;99862.31;;;18.02;53.46
41596;BME280;27283;52.504;13.358;2023-04-24T07:31:25;99862.84;;;17.69;55.78
41596;BME280;27283;52.504;13.358;2023-04-24T07:34:00;99867.13;;;17.65;54.10
41596;BME280;27283;52.504;13.358;2023-04-24T07:36:32;99874.28;;;18.01;55.17
41596;BME280;27283;52.504;13.358;2023-04-24T07:39:05;99866.47;;;18.17;53.35
41596;BME280;27283;52.504;13.358;2023-04-24T07:41:37;99866.59;;;17.98;51.93
41596;BME280;27283;52.504;13.358;2023-04-24T07:44:10;99852.88;;;18.69;51.84
41596;BME280;27283;52.504;13.358;2023-04-24T07:46:43;99856.91;;;19.70;48.28
41596;BME280;27283;52.504;13.358;2023-04-24T07:49:19;99858.56;;;20.05;48.76
41596;BME280;27283;52.504;13.358;2023-04-24T07:51:51;99848.03;;;20.75;45.46
41596;BME280;27283;52.504;13.358;2023-04-24T07:54:23;99857.06;;;21.30;43.67
41596;BME280;27283;52.504;13.358;2023-04-24T07:56:56;99853.50;;;21.30;42.43
41596;BME280;27283;52.504;13.358;2023-04-24T07:59:30;99856.09;;;21.47;43.34
41596;BME280;27283;52.504;13.358;2023-04-24T08:02:02;99853.63;;;21.72;42.49
41596;BME280;27283;52.504;13.358;2023-04-24T08:04:38;99853.13;;;22.23;41.70
41596;BME280;27283;52.504;13.358;2023-04-24T08:07:11;99850.22;;;22.35;40.07
41596;BME280;27283;52.504;13.358;2023-04-24T08:09:44;99847.72;;;23.02;39.60
41596;BME280;27283;52.504;13.358;2023-04-24T08:12:16;99851.09;;;23.14;38.20
41596;BME280;27283;52.504;13.358;2023-04-24T08:14:53;99847.47;;;22.35;37.54
41596;BME280;27283;52.504;13.358;2023-04-24T08:17:48;99850.47;;;21.53;40.00
41596;BME280;27283;52.504;13.358;2023-04-24T08:20:29;99865.78;;;21.27;40.66
41596;BME280;27283;52.504;13.358;2023-04-24T08:23:02;99863.28;;;20.32;42.04
41596;BME280;27283;52.504;13.358;2023-04-24T08:25:35;99850.59;;;19.70;42.89
41596;BME280;27283;52.504;13.358;2023-04-24T08:28:09;99852.66;;;19.45;43.44
41596;BME280;27283;52.504;13.358;2023-04-24T08:31:01;99841.88;;;19.51;44.96
41596;BME280;27283;52.504;13.358;2023-04-24T08:33:33;99848.19;;;19.39;45.24
41596;BME280;27283;52.504;13.358;2023-04-24T08:36:41;99845.59;;;19.78;43.20
41596;BME280;27283;52.504;13.358;2023-04-24T08:39:19;99840.53;;;19.70;44.89
41596;BME280;27283;52.504;13.358;2023-04-24T08:42:13;99846.00;;;19.70;45.62
41596;BME280;27283;52.504;13.358;2023-04-24T08:45:07;99847.13;;;19.57;45.86
41596;BME280;27283;52.504;13.358;2023-04-24T08:47:41;99846.97;;;19.47;43.86
41596;BME280;27283;52.504;13.358;2023-04-24T08:50:42;99853.19;;;19.76;42.94
41596;BME280;27283;52.504;13.358;2023-04-24T08:53:18;99843.09;;;20.33;41.13
41596;BME280;27283;52.504;13.358;2023-04-24T08:55:56;99849.78;;;19.69;41.88
41596;BME280;27283;52.504;13.358;2023-04-24T08:58:39;99850.28;;;19.66;42.83
41596;BME280;27283;52.504;13.358;2023-04-24T09:01:13;99858.72;;;19.81;45.18
41596;BME280;27283;52.504;13.358;2023-04-24T09:03:46;99849.13;;;19.45;45.38
41596;BME280;27283;52.504;13.358;2023-04-24T09:06:30;99848.81;;;19.12;43.43
41596;BME280;27283;52.504;13.358;2023-04-24T09:09:23;99850.38;;;19.08;45.36
41596;BME280;27283;52.504;13.358;2023-04-24T09:11:56;99856.63;;;18.80;47.74
41596;BME280;27283;52.504;13.358;2023-04-24T09:14:38;99852.69;;;18.47;48.71
41596;BME280;27283;52.504;13.358;2023-04-24T09:17:15;99851.09;;;18.22;49.09
41596;BME280;27283;52.504;13.358;2023-04-24T09:19:48;99868.22;;;18.23;51.63
41596;BME280;27283;52.504;13.358;2023-04-24T09:22:20;99860.28;;;18.33;52.44
41596;BME280;27283;52.504;13.358;2023-04-24T09:25:03;99860.63;;;18.25;51.71
41596;BME280;27283;52.504;13.358;2023-04-24T09:27:36;99861.72;;;18.36;51.69
41596;BME280;27283;52.504;13.358;2023-04-24T09:30:14;99858.03;;;18.42;51.14
41596;BME280;27283;52.504;13.358;2023-04-24T09:33:10;99860.91;;;18.64;52.45
41596;BME280;27283;52.504;13.358;2023-04-24T09:35:42;99866.41;;;18.93;49.07
41596;BME280;27283;52.504;13.358;2023-04-24T09:38:30;99865.19;;;19.01;49.17
41596;BME280;27283;52.504;13.358;2023-04-24T09:41:26;99869.31;;;18.86;49.64
41596;BME280;27283;52.504;13.358;2023-04-24T09:44:11;99863.53;;;18.71;52.22
41596;BME280;27283;52.504;13.358;2023-04-24T09:46:48;99875.06;;;18.90;51.29
41596;BME280;27283;52.504;13.358;2023-04-24T09:49:24;99868.66;;;18.96;49.42
41596;BME280;27283;52.504;13.358;2023-04-24T09:52:03;99866.00;;;19.13;49.82
41596;BME280;27283;52.504;13.358;2023-04-24T09:54:36;99853.47;;;19.46;48.60
41596;BME280;27283;52.504;13.358;2023-04-24T09:57:14;99865.75;;;19.77;47.83
41596;BME280;27283;52.504;13.358;2023-04-24T09:59:47;99864.41;;;19.97;47.75
41596;BME280;27283;52.504;13.358;2023-04-24T10:02:20;99854.22;;;20.26;49.51
41596;BME280;27283;52.504;13.358;2023-04-24T10:04:56;99857.16;;;20.86;45.88
41596;BME280;27283;52.504;13.358;2023-04-24T10:07:33;99845.81;;;20.99;45.20
41596;BME280;27283;52.504;13.358;2023-04-24T10:10:06;99853.75;;;21.01;44.05
41596;BME280;27283;52.504;13.358;2023-04-24T10:12:43;99850.25;;;21.05;45.21
41596;BME280;27283;52.504;13.358;2023-04-24T10:15:17;99849.72;;;22.01;41.07
41596;BME280;27283;52.504;13.358;2023-04-24T10:17:51;99855.22;;;22.48;41.12
41596;BME280;27283;52.504;13.358;2023-04-24T10:20:26;99856.25;;;22.37;42.61
41596;BME280;27283;52.504;13.358;2023-04-24T10:23:00;99849.34;;;21.22;44.26
41596;BME280;27283;52.504;13.358;2023-04-24T10:25:34;99854.75;;;20.89;45.19
41596;BME280;27283;52.504;13.358;2023-04-24T10:28:10;99845.97;;;21.15;43.63
41596;BME280;27283;52.504;13.358;2023-04-24T10:30:45;99855.97;;;20.38;44.64
41596;BME280;27283;52.504;13.358;2023-04-24T10:33:19;99863.16;;;20.05;47.52
41596;BME280;27283;52.504;13.358;2023-04-24T10:35:53;99857.22;;;19.91;45.48
41596;BME280;27283;52.504;13.358;2023-04-24T10:38:29;99854.75;;;19.55;47.55
41596;BME280;27283;52.504;13.358;2023-04-24T10:41:11;99861.06;;;19.27;49.11
41596;BME280;27283;52.504;13.358;2023-04-24T10:44:04;99851.44;;;19.07;50.08
41596;BME280;27283;52.504;13.358;2023-04-24T10:46:38;99858.03;;;18.83;48.98
41596;BME280;27283;52.504;13.358;2023-04-24T10:49:11;99854.84;;;18.21;49.64
41596;BME280;27283;52.504;13.358;2023-04-24T10:51:48;99848.47;;;18.16;51.40
41596;BME280;27283;52.504;13.358;2023-04-24T10:54:28;99842.56;;;18.07;52.95
41596;BME280;27283;52.504;13.358;2023-04-24T10:57:26;99848.47;;;18.16;51.83
41596;BME280;27283;52.504;13.358;2023-04-24T11:00:18;99849.66;;;18.32;49.66
41596;BME280;27283;52.504;13.358;2023-04-24T11:02:53;99852.06;;;18.98;49.69
41596;BME280;27283;52.504;13.358;2023-04-24T11:05:52;99846.22;;;20.86;45.90
41596;BME280;27283;52.504;13.358;2023-04-24T11:08:28;99842.19;;;21.21;44.26
41596;BME280;27283;52.504;13.358;2023-04-24T11:11:07;99848.28;;;20.74;44.87
41596;BME280;27283;52.504;13.358;2023-04-24T11:14:02;99844.22;;;20.76;42.60
41596;BME280;27283;52.504;13.358;2023-04-24T11:16:42;99849.63;;;21.25;43.17
41596;BME280;27283;52.504;13.358;2023-04-24T11:19:21;99836.97;;;21.14;41.96
41596;BME280;27283;52.504;13.358;2023-04-24T11:21:58;99825.38;;;21.02;41.02
41596;BME280;27283;52.504;13.358;2023-04-24T11:24:37;99830.09;;;20.84;42.34
41596;BME280;27283;52.504;13.358;2023-04-24T11:27:13;99831.75;;;20.41;42.74
41596;BME280;27283;52.504;13.358;2023-04-24T11:29:47;99840.19;;;20.00;45.00
41596;BME280;27283;52.504;13.358;2023-04-24T11:32:28;99839.50;;;19.25;47.59
41596;BME280;27283;52.504;13.358;2023-04-24T11:35:02;99843.25;;;18.78;48.57
41596;BME280;27283;52.504;13.358;2023-04-24T11:37:37;99847.16;;;18.83;48.64
41596;BME280;27283;52.504;13.358;2023-04-24T11:40:11;99845.56;;;18.58;49.67
41596;BME280;27283;52.504;13.358;2023-04-24T11:42:46;99851.16;;;18.39;51.20
41596;BME280;27283;52.504;13.358;2023-04-24T11:45:22;99848.38;;;18.11;50.99
41596;BME280;27283;52.504;13.358;2023-04-24T11:47:58;99852.94;;;17.86;51.02
41596;BME280;27283;52.504;13.358;2023-04-24T11:50:30;99854.13;;;17.79;52.34
41596;BME280;27283;52.504;13.358;2023-04-24T11:53:04;99852.56;;;17.47;54.48
41596;BME280;27283;52.504;13.358;2023-04-24T11:55:36;99843.94;;;17.50;55.32
41596;BME280;27283;52.504;13.358;2023-04-24T11:58:09;99836.72;;;17.80;54.85
41596;BME280;27283;52.504;13.358;2023-04-24T12:00:42;99845.97;;;18.26;52.94
41596;BME280;27283;52.504;13.358;2023-04-24T12:03:18;99845.19;;;18.66;54.83
41596;BME280;27283;52.504;13.358;2023-04-24T12:05:51;99842.06;;;19.15;50.52
41596;BME280;27283;52.504;13.358;2023-04-24T12:08:30;99838.22;;;19.45;50.80
41596;BME280;27283;52.504;13.358;2023-04-24T12:11:06;99836.38;;;19.34;50.42
41596;BME280;27283;52.504;13.358;2023-04-24T12:13:40;99835.13;;;18.67;51.39
41596;BME280;27283;52.504;13.358;2023-04-24T12:16:12;99824.78;;;18.28;52.88
41596;BME280;27283;52.504;13.358;2023-04-24T12:18:50;99831.44;;;18.20;53.22
41596;BME280;27283;52.504;13.358;2023-04-24T12:21:23;99829.78;;;18.19;52.88
41596;BME280;27283;52.504;13.358;2023-04-24T12:23:58;99826.66;;;18.39;52.15
41596;BME280;27283;52.504;13.358;2023-04-24T12:26:30;99814.91;;;18.51;52.51
41596;BME280;27283;52.504;13.358;2023-04-24T12:29:03;99822.16;;;18.57;54.12
41596;BME280;27283;52.504;13.358;2023-04-24T12:31:37;99805.31;;;18.60;48.85
41596;BME280;27283;52.504;13.358;2023-04-24T12:34:21;99813.25;;;18.62;50.19
41596;BME280;27283;52.504;13.358;2023-04-24T12:36:53;99812.53;;;18.95;50.33
41596;BME280;27283;52.504;13.358;2023-04-24T12:39:26;99807.03;;;19.07;44.10
41596;BME280;27283;52.504;13.358;2023-04-24T12:41:59;99810.09;;;19.27;39.45
41596;BME280;27283;52.504;13.358;2023-04-24T12:44:33;99807.63;;;19.77;39.00
41596;BME280;27283;52.504;13.358;2023-04-24T12:47:06;99798.84;;;20.31;37.82
41596;BME280;27283;52.504;13.358;2023-04-24T12:49:42;99803.41;;;20.69;34.09
41596;BME280;27283;52.504;13.358;2023-04-24T12:52:15;99800.19;;;20.73;35.00
41596;BME280;27283;52.504;13.358;2023-04-24T12:54:52;99803.28;;;20.81;35.72
41596;BME280;27283;52.504;13.358;2023-04-24T12:57:35;99806.75;;;20.54;34.73
41596;BME280;27283;52.504;13.358;2023-04-24T13:00:09;99812.53;;;20.14;36.56
41596;BME280;27283;52.504;13.358;2023-04-24T13:02:42;99811.41;;;19.76;34.41
41596;BME280;27283;52.504;13.358;2023-04-24T13:05:18;99803.06;;;19.99;34.04
41596;BME280;27283;52.504;13.358;2023-04-24T13:07:52;99810.19;;;20.00;35.52
41596;BME280;27283;52.504;13.358;2023-04-24T13:10:25;99813.66;;;19.62;35.85
41596;BME280;27283;52.504;13.358;2023-04-24T13:12:59;99819.22;;;19.84;37.08
41596;BME280;27283;52.504;13.358;2023-04-24T13:15:32;99801.75;;;20.02;35.74
41596;BME280;27283;52.504;13.358;2023-04-24T13:18:04;99805.44;;;20.35;36.62
41596;BME280;27283;52.504;13.358;2023-04-24T13:20:41;99812.97;;;20.67;34.63
41596;BME280;27283;52.504;13.358;2023-04-24T13:23:15;99802.41;;;20.53;35.25
41596;BME280;27283;52.504;13.358;2023-04-24T13:25:48;99801.00;;;19.90;34.53
41596;BME280;27283;52.504;13.358;2023-04-24T13:28:20;99803.50;;;19.57;37.05
41596;BME280;27283;52.504;13.358;2023-04-24T13:30:54;99800.06;;;19.45;36.22
41596;BME280;27283;52.504;13.358;2023-04-24T13:33:26;99800.59;;;18.84;37.02
41596;BME280;27283;52.504;13.358;2023-04-24T13:36:03;99806.25;;;18.94;38.69